createdAt,value
2018-06-19T00:01:57.857Z,94.40
2018-06-19T00:04:25.982Z,94.80
2018-06-19T00:06:53.518Z,95.90
2018-06-19T00:09:21.985Z,94.90
2018-06-19T00:11:49.516Z,95.30
2018-06-19T00:14:17.009Z,95.20
2018-06-19T00:16:44.937Z,95.60
2018-06-19T00:19:13.105Z,94.80
2018-06-19T00:21:46.789Z,95.50
2018-06-19T00:24:14.305Z,95.40
2018-06-19T00:26:41.812Z,96.00
2018-06-19T00:29:09.741Z,95.80
2018-06-19T00:31:38.215Z,95.70
2018-06-19T00:34:06.865Z,95.80
2018-06-19T00:36:34.785Z,96.80
2018-06-19T00:39:03.015Z,96.10
2018-06-19T00:41:31.000Z,95.90
2018-06-19T00:43:59.017Z,96.40
2018-06-19T00:46:28.321Z,96.80
2018-06-19T00:48:56.465Z,97.80
2018-06-19T00:51:24.688Z,97.40
2018-06-19T00:53:52.264Z,97.20
2018-06-19T00:57:00.158Z,97.20
2018-06-19T00:59:27.884Z,95.70
2018-06-19T01:01:57.528Z,95.50
2018-06-19T01:04:25.055Z,96.80
2018-06-19T01:06:53.109Z,96.60
2018-06-19T01:09:20.658Z,96.90
2018-06-19T01:11:48.585Z,97.00
2018-06-19T01:14:16.529Z,97.50
2018-06-19T01:16:44.033Z,97.40
2018-06-19T01:19:12.185Z,97.70
2018-06-19T01:21:39.692Z,98.80
2018-06-19T01:24:07.193Z,97.90
2018-06-19T01:26:34.737Z,96.80
2018-06-19T01:29:03.024Z,97.10
2018-06-19T01:31:30.895Z,97.20
2018-06-19T01:36:27.052Z,98.10
2018-06-19T01:41:22.619Z,99.30
2018-06-19T01:43:50.561Z,98.20
2018-06-19T01:46:19.153Z,98.40
2018-06-19T01:48:46.777Z,97.60
2018-06-19T01:51:14.289Z,97.90
2018-06-19T01:53:41.849Z,97.70
2018-06-19T01:56:09.387Z,97.30
2018-06-19T01:58:37.709Z,97.20
2018-06-19T02:01:06.524Z,97.00
2018-06-19T02:03:34.042Z,97.30
2018-06-19T02:06:02.083Z,98.00
2018-06-19T02:08:29.611Z,99.00
2018-06-19T02:10:57.764Z,99.40
2018-06-19T02:13:25.618Z,99.10
2018-06-19T02:15:53.135Z,99.70
2018-06-19T02:18:20.649Z,98.90
2018-06-19T02:20:48.179Z,98.40
2018-06-19T02:23:15.753Z,99.00
2018-06-19T02:25:43.332Z,99.00
2018-06-19T02:28:11.481Z,98.80
2018-06-19T02:30:39.436Z,99.90
2018-06-19T02:33:07.786Z,98.70
2018-06-19T02:38:04.297Z,98.00
2018-06-19T02:40:31.820Z,97.80
2018-06-19T02:42:59.785Z,97.40
2018-06-19T02:45:27.809Z,97.40
2018-06-19T02:47:55.309Z,97.40
2018-06-19T02:50:23.305Z,98.20
2018-06-19T02:55:18.468Z,99.70
2018-06-19T02:57:46.344Z,99.60
2018-06-19T03:00:13.919Z,99.90
2018-06-19T03:02:41.942Z,99.30
2018-06-19T03:07:36.905Z,98.60
2018-06-19T03:10:05.236Z,99.50
2018-06-19T03:12:32.865Z,99.90
2018-06-19T03:15:00.389Z,99.90
2018-06-19T03:17:27.937Z,99.90
2018-06-19T03:19:55.444Z,99.80
2018-06-19T03:22:23.051Z,99.00
2018-06-19T03:24:50.604Z,99.40
2018-06-19T03:27:18.580Z,99.90
2018-06-19T03:29:46.108Z,99.80
2018-06-19T03:32:14.148Z,99.60
2018-06-19T03:34:42.804Z,99.30
2018-06-19T03:37:10.329Z,99.00
2018-06-19T03:39:38.284Z,98.70
2018-06-19T03:42:05.793Z,98.70
2018-06-19T03:44:33.633Z,98.60
2018-06-19T03:47:01.564Z,98.00
2018-06-19T03:49:29.500Z,97.60
2018-06-19T03:51:57.733Z,98.30
2018-06-19T03:54:25.705Z,97.30
2018-06-19T03:56:53.340Z,96.80
2018-06-19T03:59:20.977Z,96.60
2018-06-19T04:01:49.105Z,96.50
2018-06-19T04:04:16.617Z,96.60
2018-06-19T04:06:45.468Z,96.60
2018-06-19T04:09:13.745Z,96.50
2018-06-19T04:11:41.283Z,96.40
2018-06-19T04:14:08.833Z,96.30
2018-06-19T04:16:36.357Z,95.60
2018-06-19T04:21:31.481Z,95.50
2018-06-19T04:23:59.004Z,95.70
2018-06-19T04:26:26.531Z,96.00
2018-06-19T04:28:54.680Z,96.10
2018-06-19T04:31:22.636Z,96.50
2018-06-19T04:33:50.673Z,96.10
2018-06-19T04:36:18.521Z,96.50
2018-06-19T04:38:46.678Z,95.80
2018-06-19T04:41:14.553Z,95.50
2018-06-19T04:43:42.625Z,95.20
2018-06-19T04:46:10.704Z,96.10
2018-06-19T04:48:38.582Z,95.40
2018-06-19T04:51:06.449Z,95.60
2018-06-19T04:53:37.160Z,95.10
2018-06-19T04:56:05.249Z,94.60
2018-06-19T04:58:33.793Z,94.40
2018-06-19T05:01:01.601Z,94.50
2018-06-19T05:03:29.810Z,94.40
2018-06-19T05:05:57.657Z,94.60
2018-06-19T05:08:25.827Z,94.30
2018-06-19T05:10:53.364Z,95.30
2018-06-19T05:13:20.983Z,94.40
2018-06-19T05:15:48.844Z,93.10
2018-06-19T05:18:16.457Z,93.40
2018-06-19T05:20:44.356Z,92.60
2018-06-19T05:23:11.884Z,92.30
2018-06-19T05:25:39.409Z,92.30
2018-06-19T05:28:07.313Z,92.20
2018-06-19T05:30:34.812Z,91.80
2018-06-19T05:33:02.858Z,92.30
2018-06-19T05:35:31.817Z,91.90
2018-06-19T05:38:00.002Z,91.90
2018-06-19T05:40:27.529Z,92.50
2018-06-19T05:42:55.425Z,92.00
2018-06-19T05:45:23.596Z,91.80
2018-06-19T05:47:51.124Z,91.40
2018-06-19T05:50:19.241Z,91.60
2018-06-19T05:52:46.795Z,91.50
2018-06-19T05:55:15.089Z,90.40
2018-06-19T05:57:42.713Z,89.60
2018-06-19T06:00:10.296Z,89.40
2018-06-19T06:02:38.329Z,89.00
2018-06-19T06:05:05.891Z,88.70
2018-06-19T06:07:33.404Z,87.00
2018-06-19T06:10:00.929Z,85.80
2018-06-19T06:12:28.460Z,85.90
2018-06-19T06:14:56.173Z,86.90
2018-06-19T06:17:23.881Z,84.30
2018-06-19T06:19:52.241Z,86.50
2018-06-19T06:22:19.764Z,86.90
2018-06-19T06:24:47.257Z,85.30
2018-06-19T06:27:15.660Z,83.80
2018-06-19T06:29:43.181Z,83.50
2018-06-19T06:32:10.720Z,81.60
2018-06-19T06:34:38.557Z,82.80
2018-06-19T06:37:06.094Z,82.90
2018-06-19T06:39:33.927Z,81.50
2018-06-19T06:42:01.824Z,81.60
2018-06-19T06:44:29.669Z,81.10
2018-06-19T06:46:57.738Z,78.30
2018-06-19T06:51:52.853Z,80.00
2018-06-19T06:54:20.953Z,77.10
2018-06-19T06:56:48.538Z,79.00
2018-06-19T06:59:17.412Z,76.70
2018-06-19T07:01:45.989Z,78.10
2018-06-19T07:04:13.708Z,76.40
2018-06-19T07:06:41.941Z,77.20
2018-06-19T07:11:38.682Z,75.90
2018-06-19T07:16:34.261Z,72.60
2018-06-19T07:19:02.391Z,74.20
2018-06-19T07:21:30.183Z,74.80
2018-06-19T07:23:58.177Z,73.60
2018-06-19T07:26:25.714Z,72.20
2018-06-19T07:28:53.925Z,69.70
2018-06-19T07:31:21.517Z,73.50
2018-06-19T07:33:49.449Z,74.80
2018-06-19T07:36:16.992Z,73.50
2018-06-19T07:38:44.905Z,74.00
2018-06-19T07:41:12.869Z,74.40
2018-06-19T07:43:40.780Z,72.60
2018-06-19T07:46:08.759Z,73.40
2018-06-19T07:48:36.369Z,73.10
2018-06-19T07:51:04.363Z,69.00
2018-06-19T07:53:31.969Z,71.20
2018-06-19T07:55:59.514Z,69.40
2018-06-19T07:58:27.492Z,68.60
2018-06-19T08:00:55.080Z,68.70
2018-06-19T08:03:22.721Z,69.40
2018-06-19T08:05:50.263Z,68.10
2018-06-19T08:08:18.147Z,67.10
2018-06-19T08:10:45.664Z,68.30
2018-06-19T08:13:14.218Z,68.10
2018-06-19T08:15:41.831Z,68.00
2018-06-19T08:18:09.827Z,67.70
2018-06-19T08:20:37.346Z,66.80
2018-06-19T08:25:32.625Z,65.00
2018-06-19T08:28:00.220Z,65.90
2018-06-19T08:30:27.748Z,66.70
2018-06-19T08:32:55.725Z,64.30
2018-06-19T08:35:23.271Z,64.20
2018-06-19T08:37:51.548Z,64.90
2018-06-19T08:40:19.217Z,66.40
2018-06-19T08:42:47.300Z,65.50
2018-06-19T08:45:15.386Z,66.00
2018-06-19T08:47:43.279Z,63.50
2018-06-19T08:50:10.820Z,61.70
2018-06-19T08:52:38.325Z,62.30
2018-06-19T08:55:06.586Z,63.50
2018-06-19T08:57:34.585Z,63.40
2018-06-19T09:06:49.594Z,63.80
2018-06-19T09:09:18.264Z,64.90
2018-06-19T09:11:45.829Z,65.30
2018-06-19T09:14:13.368Z,62.80
2018-06-19T09:16:41.836Z,63.10
2018-06-19T09:19:09.779Z,62.50
2018-06-19T09:21:38.027Z,63.30
2018-06-19T09:24:06.215Z,60.70
2018-06-19T09:26:33.741Z,63.00
2018-06-19T09:29:02.879Z,61.80
2018-06-19T09:31:30.420Z,62.50
2018-06-19T09:33:58.529Z,61.40
2018-06-19T09:36:26.224Z,62.00
2018-06-19T09:38:54.095Z,62.00
2018-06-19T09:41:22.122Z,62.90
2018-06-19T09:45:19.666Z,63.50
2018-06-19T09:47:47.588Z,63.80
2018-06-19T09:50:15.329Z,62.60
2018-06-19T09:52:43.556Z,62.70
2018-06-19T09:57:39.809Z,62.70
2018-06-19T10:00:07.461Z,62.80
2018-06-19T10:02:35.079Z,62.50
2018-06-19T10:05:02.705Z,61.30
2018-06-19T10:07:30.281Z,59.60
2018-06-19T10:09:57.858Z,60.20
2018-06-19T10:12:26.137Z,58.30
2018-06-19T10:14:54.761Z,58.90
2018-06-19T10:17:22.882Z,59.40
2018-06-19T10:22:18.265Z,60.10
2018-06-19T10:24:45.813Z,59.40
2018-06-19T10:27:13.469Z,58.70
2018-06-19T10:29:41.011Z,57.50
2018-06-19T10:34:36.438Z,58.90
2018-06-19T10:37:04.843Z,59.60
2018-06-19T10:39:32.757Z,58.00
2018-06-19T10:42:00.796Z,58.20
2018-06-19T10:44:28.717Z,58.30
2018-06-19T10:46:56.759Z,58.60
2018-06-19T10:49:24.330Z,57.10
2018-06-19T10:51:52.368Z,56.30
2018-06-19T10:54:19.924Z,56.00
2018-06-19T10:56:48.152Z,56.90
2018-06-19T10:59:15.717Z,56.60
2018-06-19T11:01:43.293Z,55.70
2018-06-19T11:04:10.949Z,54.40
2018-06-19T11:06:38.537Z,54.60
2018-06-19T11:09:08.439Z,54.60
2018-06-19T11:11:35.975Z,54.60
2018-06-19T11:14:04.072Z,56.00
2018-06-19T11:16:31.626Z,53.30
2018-06-19T11:18:59.659Z,52.00
2018-06-19T11:21:27.301Z,53.20
2018-06-19T11:23:55.119Z,51.40
2018-06-19T11:26:23.173Z,50.40
2018-06-19T11:28:50.948Z,52.00
2018-06-19T11:31:18.507Z,50.70
2018-06-19T11:33:46.457Z,50.90
2018-06-19T11:36:14.545Z,51.40
2018-06-19T11:38:42.489Z,52.90
2018-06-19T11:41:10.673Z,52.10
2018-06-19T11:43:38.788Z,50.10
2018-06-19T11:46:06.573Z,51.30
2018-06-19T11:48:34.481Z,49.30
2018-06-19T11:51:02.046Z,50.90
2018-06-19T11:53:29.569Z,50.00
2018-06-19T11:55:57.113Z,50.30
2018-06-19T11:58:24.633Z,48.20
2018-06-19T12:00:53.340Z,48.20
2018-06-19T12:03:20.885Z,48.50
2018-06-19T12:05:48.491Z,47.70
2018-06-19T12:08:16.135Z,48.60
2018-06-19T12:10:43.687Z,48.80
2018-06-19T12:13:12.062Z,49.30
2018-06-19T12:18:07.955Z,48.20
2018-06-19T12:20:35.533Z,48.60
2018-06-19T12:23:03.483Z,48.70
2018-06-19T12:25:31.067Z,48.30
2018-06-19T12:27:59.363Z,47.00
2018-06-19T12:30:26.907Z,48.30
2018-06-19T12:32:55.928Z,44.90
2018-06-19T12:37:51.385Z,47.50
2018-06-19T12:40:19.480Z,47.00
2018-06-19T12:42:47.435Z,46.90
2018-06-19T12:45:15.569Z,46.30
2018-06-19T12:47:43.600Z,46.10
2018-06-19T12:50:33.255Z,45.50
2018-06-19T12:53:13.283Z,46.50
2018-06-19T12:58:13.992Z,44.90
2018-06-19T13:00:41.621Z,46.00
2018-06-19T13:03:20.724Z,46.20
2018-06-19T13:05:59.683Z,46.30
2018-06-19T13:08:27.431Z,45.20
2018-06-19T13:10:55.479Z,46.20
2018-06-19T13:13:34.614Z,46.50
2018-06-19T13:16:02.606Z,44.50
2018-06-19T13:21:04.869Z,44.30
2018-06-19T13:23:32.994Z,43.80
2018-06-19T13:26:01.017Z,44.10
2018-06-19T13:29:51.097Z,45.30
2018-06-19T13:34:48.669Z,43.70
2018-06-19T13:37:16.585Z,43.60
2018-06-19T13:39:45.657Z,43.20
2018-06-19T13:42:35.219Z,43.20
2018-06-19T13:45:04.749Z,42.80
2018-06-19T13:47:32.432Z,43.50
2018-06-19T13:50:00.288Z,42.90
2018-06-19T13:52:28.225Z,43.40
2018-06-19T13:58:11.524Z,41.30
2018-06-19T14:00:39.052Z,41.90
2018-06-19T14:03:06.745Z,43.10
2018-06-19T14:05:34.349Z,43.40
2018-06-19T14:10:44.881Z,44.40
2018-06-19T14:13:12.441Z,45.00
2018-06-19T14:15:48.062Z,45.10
2018-06-19T14:18:16.585Z,44.00
2018-06-19T14:20:44.469Z,45.30
2018-06-19T14:23:12.881Z,44.80
2018-06-19T14:25:40.505Z,45.90
2018-06-19T14:28:08.800Z,47.30
2018-06-19T14:30:36.342Z,47.50
2018-06-19T14:33:04.400Z,47.40
2018-06-19T14:35:32.455Z,47.70
2018-06-19T14:40:28.693Z,45.40
2018-06-19T14:42:56.657Z,43.70
2018-06-19T14:45:24.945Z,43.10
2018-06-19T14:47:52.469Z,41.00
2018-06-19T14:50:20.627Z,39.40
2018-06-19T14:52:48.189Z,39.60
2018-06-19T14:55:15.814Z,38.50
2018-06-19T14:57:43.364Z,38.40
2018-06-19T15:00:11.529Z,40.20
2018-06-19T15:02:39.601Z,41.40
2018-06-19T15:05:08.349Z,42.50
2018-06-19T15:07:41.740Z,44.00
2018-06-19T15:10:09.399Z,43.70
2018-06-19T15:12:38.100Z,44.00
2018-06-19T15:17:34.213Z,42.80
2018-06-19T15:20:01.748Z,42.50
2018-06-19T15:22:30.722Z,43.20
2018-06-19T15:24:58.343Z,44.00
2018-06-19T15:27:26.809Z,44.70
2018-06-19T15:29:54.832Z,45.80
2018-06-19T15:32:23.233Z,46.70
2018-06-19T15:34:50.825Z,47.00
2018-06-19T15:37:18.607Z,47.40
2018-06-19T15:39:46.829Z,48.10
2018-06-19T15:44:42.657Z,48.60
2018-06-19T15:47:10.697Z,48.80
2018-06-19T15:49:38.673Z,49.50
2018-06-19T15:52:06.556Z,47.70
2018-06-19T15:54:34.076Z,47.30
2018-06-19T15:57:01.625Z,47.70
2018-06-19T16:04:24.817Z,45.10
2018-06-19T16:06:53.111Z,45.00
2018-06-19T16:09:20.650Z,45.80
2018-06-19T16:11:48.386Z,45.80
2018-06-19T16:14:16.522Z,45.80
2018-06-19T16:16:44.079Z,45.80
2018-06-19T16:24:08.151Z,44.00
2018-06-19T16:26:35.699Z,43.00
2018-06-19T16:29:04.775Z,42.90
2018-06-19T16:31:32.945Z,42.70
2018-06-19T16:36:28.841Z,43.50
2018-06-19T16:38:57.108Z,44.20
2018-06-19T16:41:25.633Z,44.90
2018-06-19T16:43:53.548Z,43.90
2018-06-19T16:46:21.439Z,45.30
2018-06-19T16:48:49.538Z,45.60
2018-06-19T16:51:18.189Z,45.00
2018-06-19T16:53:45.760Z,46.00
2018-06-19T16:58:40.843Z,46.70
2018-06-19T17:01:08.626Z,47.40
2018-06-19T17:03:37.091Z,47.50
2018-06-19T17:11:01.988Z,48.70
2018-06-19T17:13:29.866Z,49.20
2018-06-19T17:15:58.020Z,49.80
2018-06-19T17:20:55.324Z,49.80
2018-06-19T17:23:23.708Z,50.30
2018-06-19T17:25:51.629Z,50.10
2018-06-19T17:28:19.854Z,50.50
2018-06-19T17:30:48.339Z,50.40
2018-06-19T17:33:17.058Z,50.80
2018-06-19T17:35:44.938Z,51.00
2018-06-19T17:38:13.290Z,52.00
2018-06-19T17:40:41.770Z,52.30
2018-06-19T17:43:10.157Z,52.00
2018-06-19T17:45:38.469Z,52.00
2018-06-19T17:48:06.877Z,51.80
2018-06-19T17:50:35.378Z,52.20
2018-06-19T17:53:04.291Z,52.50
2018-06-19T17:55:32.607Z,53.40
2018-06-19T17:58:02.076Z,53.70
2018-06-19T18:00:30.498Z,54.60
2018-06-19T18:02:58.407Z,54.30
2018-06-19T18:07:55.863Z,55.60
2018-06-19T18:10:24.927Z,56.90
2018-06-19T18:12:53.431Z,57.30
2018-06-19T18:15:22.012Z,57.40
2018-06-19T18:17:50.788Z,57.40
2018-06-19T18:20:18.823Z,58.60
2018-06-19T18:22:47.149Z,58.40
2018-06-19T18:25:15.282Z,57.50
2018-06-19T18:27:43.565Z,57.90
2018-06-19T18:30:12.002Z,57.60
2018-06-19T18:32:40.855Z,57.80
2018-06-19T18:35:09.393Z,58.20
2018-06-19T18:37:37.060Z,60.50
2018-06-19T18:40:05.512Z,61.90
2018-06-19T18:42:34.747Z,62.70
2018-06-19T18:45:03.113Z,62.20
2018-06-19T18:47:30.777Z,61.70
2018-06-19T18:49:59.349Z,61.50
2018-06-19T18:52:27.103Z,61.80
2018-06-19T18:54:55.423Z,62.80
2018-06-19T18:57:23.449Z,63.30
2018-06-19T18:59:51.996Z,62.80
2018-06-19T19:02:19.909Z,64.10
2018-06-19T19:04:49.265Z,63.70
2018-06-19T19:07:17.093Z,64.90
2018-06-19T19:09:50.419Z,65.60
2018-06-19T19:12:18.942Z,67.90
2018-06-19T19:14:54.143Z,67.70
2018-06-19T19:17:27.975Z,68.00
2018-06-19T19:19:56.482Z,68.20
2018-06-19T19:22:24.941Z,67.30
2018-06-19T19:24:54.328Z,67.70
2018-06-19T19:27:28.180Z,68.40
2018-06-19T19:32:26.088Z,69.10
2018-06-19T19:34:54.169Z,69.80
2018-06-19T19:37:27.808Z,69.70
2018-06-19T19:39:56.380Z,71.50
2018-06-19T19:42:25.084Z,69.30
2018-06-19T19:44:55.268Z,69.20
2018-06-19T19:47:29.137Z,70.10
2018-06-19T19:49:56.988Z,70.10
2018-06-19T19:52:25.259Z,71.20
2018-06-19T19:54:53.135Z,72.40
2018-06-19T19:57:26.596Z,72.10
2018-06-19T19:59:54.779Z,71.70
2018-06-19T20:02:22.857Z,73.00
2018-06-19T20:04:50.823Z,72.70
2018-06-19T20:09:47.770Z,72.90
2018-06-19T20:12:16.433Z,74.00
2018-06-19T20:14:45.833Z,72.60
2018-06-19T20:17:13.602Z,72.50
2018-06-19T20:19:42.300Z,74.00
2018-06-19T20:22:10.159Z,73.90
2018-06-19T20:24:38.547Z,73.80
2018-06-19T20:27:07.033Z,73.50
2018-06-19T20:29:34.816Z,74.60
2018-06-19T20:32:03.735Z,75.00
2018-06-19T20:34:31.534Z,76.90
2018-06-19T20:36:59.851Z,74.70
2018-06-19T20:39:28.239Z,75.40
2018-06-19T20:41:58.159Z,74.60
2018-06-19T20:44:26.503Z,74.90
2018-06-19T20:46:55.945Z,74.40
2018-06-19T20:49:24.363Z,74.50
2018-06-19T20:51:52.907Z,75.90
2018-06-19T20:54:20.710Z,74.30
2018-06-19T20:56:48.609Z,75.40
2018-06-19T21:01:44.132Z,75.40
2018-06-19T21:04:12.063Z,78.80
2018-06-19T21:06:41.339Z,77.00
2018-06-19T21:09:09.625Z,76.40
2018-06-19T21:11:38.635Z,76.10
2018-06-19T21:14:06.693Z,76.40
2018-06-19T21:19:03.448Z,78.20
2018-06-19T21:21:31.661Z,79.90
2018-06-19T21:24:00.285Z,80.10
2018-06-19T21:26:28.869Z,78.30
2018-06-19T21:28:56.583Z,78.80
2018-06-19T21:31:24.458Z,78.70
2018-06-19T21:33:53.708Z,78.90
2018-06-19T21:36:21.508Z,79.40
2018-06-19T21:38:49.513Z,78.60
2018-06-19T21:41:17.440Z,78.80
2018-06-19T21:43:45.724Z,79.50
2018-06-19T21:46:14.161Z,80.10
2018-06-19T21:48:43.154Z,80.30
2018-06-19T21:51:11.109Z,81.10
2018-06-19T21:53:38.972Z,81.50
2018-06-19T21:56:06.777Z,81.60
2018-06-19T21:58:34.565Z,81.00
2018-06-19T22:01:02.556Z,81.20
2018-06-19T22:03:31.005Z,82.40
2018-06-19T22:05:58.675Z,81.40
2018-06-19T22:08:33.209Z,83.10
2018-06-19T22:11:00.730Z,82.50
2018-06-19T22:13:29.592Z,82.20
2018-06-19T22:15:57.714Z,82.80
2018-06-19T22:18:26.698Z,81.20
2018-06-19T22:20:54.240Z,81.00
2018-06-19T22:23:22.337Z,80.60
2018-06-19T22:25:51.129Z,80.50
2018-06-19T22:28:19.108Z,81.10
2018-06-19T22:30:46.717Z,81.30
2018-06-19T22:33:16.080Z,81.40
2018-06-19T22:35:43.616Z,81.70
2018-06-19T22:38:11.524Z,82.40
2018-06-19T22:40:39.680Z,85.90
2018-06-19T22:43:07.572Z,83.60
2018-06-19T22:45:35.468Z,83.90
2018-06-19T22:48:03.361Z,87.00
2018-06-19T22:50:31.377Z,87.60
2018-06-19T22:52:58.880Z,85.90
2018-06-19T22:55:27.128Z,84.20
2018-06-19T22:57:54.660Z,84.60
2018-06-19T23:00:22.908Z,83.90
2018-06-19T23:02:52.377Z,83.50
2018-06-19T23:05:19.900Z,83.10
2018-06-19T23:07:47.808Z,83.10
2018-06-19T23:12:43.377Z,83.40
2018-06-19T23:15:11.233Z,84.80
2018-06-19T23:17:38.745Z,85.70
2018-06-19T23:20:07.676Z,85.90
2018-06-19T23:22:35.260Z,85.00
2018-06-19T23:25:04.132Z,85.00
2018-06-19T23:27:31.998Z,86.30
2018-06-19T23:29:59.876Z,84.60
2018-06-19T23:32:27.744Z,85.50
2018-06-19T23:37:22.716Z,87.40
2018-06-19T23:39:50.576Z,87.80
2018-06-19T23:42:18.620Z,87.20
2018-06-19T23:44:46.472Z,86.80
2018-06-19T23:47:14.396Z,86.10
2018-06-19T23:49:41.913Z,87.40
2018-06-19T23:52:09.417Z,86.30
2018-06-19T23:54:37.004Z,86.40
2018-06-19T23:57:04.676Z,85.60
2018-06-19T23:59:32.273Z,86.10
